sensor_id;sensor_type;location;lat;lon;timestamp;P1;durP1;ratioP1;P2;durP2;ratioP2
69912;SDS011;57198;52.082;5.108;2023-04-24T00:01:26;2.08;;;1.77;;
69912;SDS011;57198;52.082;5.108;2023-04-24T00:03:56;3.22;;;3.03;;
69912;SDS011;57198;52.082;5.108;2023-04-24T00:06:26;2.47;;;2.38;;
69912;SDS011;57198;52.082;5.108;2023-04-24T00:08:59;3.47;;;2.05;;
69912;SDS011;57198;52.082;5.108;2023-04-24T00:11:27;3.10;;;2.90;;
69912;SDS011;57198;52.082;5.108;2023-04-24T00:13:55;2.75;;;2.65;;
69912;SDS011;57198;52.082;5.108;2023-04-24T00:16:23;3.20;;;2.90;;
69912;SDS011;57198;52.082;5.108;2023-04-24T00:18:50;2.78;;;2.60;;
69912;SDS011;57198;52.082;5.108;2023-04-24T00:21:22;2.80;;;2.60;;
69912;SDS011;57198;52.082;5.108;2023-04-24T00:23:52;2.65;;;2.55;;
69912;SDS011;57198;52.082;5.108;2023-04-24T00:26:19;2.77;;;2.57;;
69912;SDS011;57198;52.082;5.108;2023-04-24T00:28:47;2.67;;;2.47;;
69912;SDS011;57198;52.082;5.108;2023-04-24T00:31:14;3.58;;;3.28;;
69912;SDS011;57198;52.082;5.108;2023-04-24T00:33:41;2.70;;;2.50;;
69912;SDS011;57198;52.082;5.108;2023-04-24T00:36:09;3.30;;;3.15;;
69912;SDS011;57198;52.082;5.108;2023-04-24T00:38:36;3.13;;;2.92;;
69912;SDS011;57198;52.082;5.108;2023-04-24T00:41:03;3.03;;;2.63;;
69912;SDS011;57198;52.082;5.108;2023-04-24T00:43:31;3.72;;;3.42;;
69912;SDS011;57198;52.082;5.108;2023-04-24T00:45:58;4.03;;;3.83;;
69912;SDS011;57198;52.082;5.108;2023-04-24T00:48:28;3.63;;;3.33;;
69912;SDS011;57198;52.082;5.108;2023-04-24T00:50:55;3.63;;;3.27;;
69912;SDS011;57198;52.082;5.108;2023-04-24T00:53:23;2.72;;;2.53;;
69912;SDS011;57198;52.082;5.108;2023-04-24T00:55:51;3.70;;;3.50;;
69912;SDS011;57198;52.082;5.108;2023-04-24T00:58:18;3.50;;;3.25;;
69912;SDS011;57198;52.082;5.108;2023-04-24T01:00:46;3.10;;;2.90;;
69912;SDS011;57198;52.082;5.108;2023-04-24T01:03:13;4.17;;;3.80;;
69912;SDS011;57198;52.082;5.108;2023-04-24T01:05:41;4.50;;;3.38;;
69912;SDS011;57198;52.082;5.108;2023-04-24T01:08:09;4.68;;;3.83;;
69912;SDS011;57198;52.082;5.108;2023-04-24T01:10:36;5.13;;;4.72;;
69912;SDS011;57198;52.082;5.108;2023-04-24T01:13:05;5.25;;;4.85;;
69912;SDS011;57198;52.082;5.108;2023-04-24T01:15:32;5.50;;;5.10;;
69912;SDS011;57198;52.082;5.108;2023-04-24T01:17:59;6.18;;;5.57;;
69912;SDS011;57198;52.082;5.108;2023-04-24T01:20:27;6.22;;;4.78;;
69912;SDS011;57198;52.082;5.108;2023-04-24T01:22:55;5.85;;;5.30;;
69912;SDS011;57198;52.082;5.108;2023-04-24T01:25:24;5.03;;;4.63;;
69912;SDS011;57198;52.082;5.108;2023-04-24T01:27:52;5.37;;;4.93;;
69912;SDS011;57198;52.082;5.108;2023-04-24T01:30:20;5.65;;;4.65;;
69912;SDS011;57198;52.082;5.108;2023-04-24T01:32:49;4.68;;;4.28;;
69912;SDS011;57198;52.082;5.108;2023-04-24T01:35:16;5.00;;;3.90;;
69912;SDS011;57198;52.082;5.108;2023-04-24T01:37:44;5.10;;;4.05;;
69912;SDS011;57198;52.082;5.108;2023-04-24T01:40:11;4.93;;;4.37;;
69912;SDS011;57198;52.082;5.108;2023-04-24T01:42:40;4.88;;;4.47;;
69912;SDS011;57198;52.082;5.108;2023-04-24T01:45:09;4.95;;;4.55;;
69912;SDS011;57198;52.082;5.108;2023-04-24T01:47:37;5.22;;;4.70;;
69912;SDS011;57198;52.082;5.108;2023-04-24T01:50:05;5.03;;;4.43;;
69912;SDS011;57198;52.082;5.108;2023-04-24T01:52:32;4.63;;;4.22;;
69912;SDS011;57198;52.082;5.108;2023-04-24T01:55:02;5.18;;;4.68;;
69912;SDS011;57198;52.082;5.108;2023-04-24T01:57:30;4.72;;;4.43;;
69912;SDS011;57198;52.082;5.108;2023-04-24T01:59:58;3.70;;;3.50;;
69912;SDS011;57198;52.082;5.108;2023-04-24T02:02:27;4.10;;;3.80;;
69912;SDS011;57198;52.082;5.108;2023-04-24T02:04:56;4.32;;;3.78;;
69912;SDS011;57198;52.082;5.108;2023-04-24T02:07:24;4.47;;;3.42;;
69912;SDS011;57198;52.082;5.108;2023-04-24T02:09:51;4.20;;;3.80;;
69912;SDS011;57198;52.082;5.108;2023-04-24T02:12:19;4.75;;;4.45;;
69912;SDS011;57198;52.082;5.108;2023-04-24T02:14:46;4.63;;;3.78;;
69912;SDS011;57198;52.082;5.108;2023-04-24T02:17:13;4.10;;;3.80;;
69912;SDS011;57198;52.082;5.108;2023-04-24T02:19:42;4.03;;;3.50;;
69912;SDS011;57198;52.082;5.108;2023-04-24T02:22:10;3.03;;;2.83;;
69912;SDS011;57198;52.082;5.108;2023-04-24T02:24:37;3.42;;;3.20;;
69912;SDS011;57198;52.082;5.108;2023-04-24T02:27:05;3.60;;;3.40;;
69912;SDS011;57198;52.082;5.108;2023-04-24T02:29:32;4.95;;;2.85;;
69912;SDS011;57198;52.082;5.108;2023-04-24T02:32:00;4.25;;;3.88;;
69912;SDS011;57198;52.082;5.108;2023-04-24T02:34:28;4.28;;;3.88;;
69912;SDS011;57198;52.082;5.108;2023-04-24T02:36:55;4.15;;;3.75;;
69912;SDS011;57198;52.082;5.108;2023-04-24T02:39:22;4.22;;;3.92;;
69912;SDS011;57198;52.082;5.108;2023-04-24T02:41:51;4.27;;;3.93;;
69912;SDS011;57198;52.082;5.108;2023-04-24T02:44:18;4.50;;;4.10;;
69912;SDS011;57198;52.082;5.108;2023-04-24T02:46:46;4.38;;;3.85;;
69912;SDS011;57198;52.082;5.108;2023-04-24T02:49:13;4.57;;;4.00;;
69912;SDS011;57198;52.082;5.108;2023-04-24T02:51:41;4.88;;;4.47;;
69912;SDS011;57198;52.082;5.108;2023-04-24T02:54:09;5.33;;;4.80;;
69912;SDS011;57198;52.082;5.108;2023-04-24T02:56:37;6.30;;;4.85;;
69912;SDS011;57198;52.082;5.108;2023-04-24T02:59:06;5.55;;;4.85;;
69912;SDS011;57198;52.082;5.108;2023-04-24T03:01:33;5.35;;;4.85;;
69912;SDS011;57198;52.082;5.108;2023-04-24T03:04:01;6.53;;;5.30;;
69912;SDS011;57198;52.082;5.108;2023-04-24T03:06:28;5.57;;;5.07;;
69912;SDS011;57198;52.082;5.108;2023-04-24T03:08:57;7.78;;;6.10;;
69912;SDS011;57198;52.082;5.108;2023-04-24T03:11:24;6.53;;;5.93;;
69912;SDS011;57198;52.082;5.108;2023-04-24T03:13:52;4.65;;;4.25;;
69912;SDS011;57198;52.082;5.108;2023-04-24T03:16:19;6.35;;;5.82;;
69912;SDS011;57198;52.082;5.108;2023-04-24T03:18:47;6.38;;;5.78;;
69912;SDS011;57198;52.082;5.108;2023-04-24T03:21:14;5.88;;;5.38;;
69912;SDS011;57198;52.082;5.108;2023-04-24T03:23:42;6.75;;;6.05;;
69912;SDS011;57198;52.082;5.108;2023-04-24T03:26:10;6.88;;;5.53;;
69912;SDS011;57198;52.082;5.108;2023-04-24T03:28:44;6.57;;;5.65;;
69912;SDS011;57198;52.082;5.108;2023-04-24T03:31:12;6.07;;;5.53;;
69912;SDS011;57198;52.082;5.108;2023-04-24T03:33:40;6.10;;;5.22;;
69912;SDS011;57198;52.082;5.108;2023-04-24T03:36:07;5.65;;;5.15;;
69912;SDS011;57198;52.082;5.108;2023-04-24T03:38:38;5.75;;;5.25;;
69912;SDS011;57198;52.082;5.108;2023-04-24T03:41:22;6.20;;;5.60;;
69912;SDS011;57198;52.082;5.108;2023-04-24T03:43:54;5.90;;;4.77;;
69912;SDS011;57198;52.082;5.108;2023-04-24T03:46:21;6.07;;;5.47;;
69912;SDS011;57198;52.082;5.108;2023-04-24T03:48:53;5.88;;;5.28;;
69912;SDS011;57198;52.082;5.108;2023-04-24T03:51:25;6.38;;;5.78;;
69912;SDS011;57198;52.082;5.108;2023-04-24T03:53:58;5.68;;;5.18;;
69912;SDS011;57198;52.082;5.108;2023-04-24T03:56:29;5.50;;;5.00;;
69912;SDS011;57198;52.082;5.108;2023-04-24T03:58:56;5.13;;;4.60;;
69912;SDS011;57198;52.082;5.108;2023-04-24T04:01:23;6.07;;;5.47;;
69912;SDS011;57198;52.082;5.108;2023-04-24T04:03:57;5.00;;;4.55;;
69912;SDS011;57198;52.082;5.108;2023-04-24T04:06:26;5.03;;;4.53;;
69912;SDS011;57198;52.082;5.108;2023-04-24T04:08:56;5.33;;;4.70;;
69912;SDS011;57198;52.082;5.108;2023-04-24T04:11:23;6.05;;;5.43;;
69912;SDS011;57198;52.082;5.108;2023-04-24T04:13:51;5.50;;;5.00;;
69912;SDS011;57198;52.082;5.108;2023-04-24T04:16:20;5.35;;;4.85;;
69912;SDS011;57198;52.082;5.108;2023-04-24T04:18:52;5.65;;;4.70;;
69912;SDS011;57198;52.082;5.108;2023-04-24T04:21:19;4.83;;;4.33;;
69912;SDS011;57198;52.082;5.108;2023-04-24T04:23:52;3.90;;;3.55;;
69912;SDS011;57198;52.082;5.108;2023-04-24T04:26:26;3.95;;;3.65;;
69912;SDS011;57198;52.082;5.108;2023-04-24T04:29:03;3.92;;;3.63;;
69912;SDS011;57198;52.082;5.108;2023-04-24T04:31:32;3.92;;;3.53;;
69912;SDS011;57198;52.082;5.108;2023-04-24T04:34:04;4.10;;;3.77;;
69912;SDS011;57198;52.082;5.108;2023-04-24T04:36:33;3.92;;;3.55;;
69912;SDS011;57198;52.082;5.108;2023-04-24T04:39:17;4.72;;;4.03;;
69912;SDS011;57198;52.082;5.108;2023-04-24T04:41:58;4.18;;;3.70;;
69912;SDS011;57198;52.082;5.108;2023-04-24T04:44:33;5.97;;;4.40;;
69912;SDS011;57198;52.082;5.108;2023-04-24T04:47:03;5.20;;;4.70;;
69912;SDS011;57198;52.082;5.108;2023-04-24T04:49:34;4.70;;;4.30;;
69912;SDS011;57198;52.082;5.108;2023-04-24T04:52:04;4.70;;;4.38;;
69912;SDS011;57198;52.082;5.108;2023-04-24T04:54:31;5.60;;;3.75;;
69912;SDS011;57198;52.082;5.108;2023-04-24T04:57:00;4.78;;;4.38;;
69912;SDS011;57198;52.082;5.108;2023-04-24T04:59:30;3.40;;;3.20;;
69912;SDS011;57198;52.082;5.108;2023-04-24T05:02:03;3.50;;;3.20;;
69912;SDS011;57198;52.082;5.108;2023-04-24T05:04:31;1.98;;;1.88;;
69912;SDS011;57198;52.082;5.108;2023-04-24T05:06:59;1.70;;;1.60;;
69912;SDS011;57198;52.082;5.108;2023-04-24T05:09:29;2.03;;;1.80;;
69912;SDS011;57198;52.082;5.108;2023-04-24T05:12:01;2.10;;;1.90;;
69912;SDS011;57198;52.082;5.108;2023-04-24T05:14:33;2.30;;;2.20;;
69912;SDS011;57198;52.082;5.108;2023-04-24T05:17:00;1.80;;;1.50;;
69912;SDS011;57198;52.082;5.108;2023-04-24T05:19:29;2.08;;;1.98;;
69912;SDS011;57198;52.082;5.108;2023-04-24T05:21:59;1.98;;;1.88;;
69912;SDS011;57198;52.082;5.108;2023-04-24T05:24:30;1.80;;;1.70;;
69912;SDS011;57198;52.082;5.108;2023-04-24T05:27:10;1.30;;;1.20;;
69912;SDS011;57198;52.082;5.108;2023-04-24T05:29:39;1.00;;;1.00;;
69912;SDS011;57198;52.082;5.108;2023-04-24T05:32:08;2.22;;;1.40;;
69912;SDS011;57198;52.082;5.108;2023-04-24T05:34:35;1.77;;;1.67;;
69912;SDS011;57198;52.082;5.108;2023-04-24T05:37:03;1.50;;;1.40;;
69912;SDS011;57198;52.082;5.108;2023-04-24T05:39:34;1.50;;;1.40;;
69912;SDS011;57198;52.082;5.108;2023-04-24T05:42:02;1.58;;;1.48;;
69912;SDS011;57198;52.082;5.108;2023-04-24T05:44:30;2.13;;;1.92;;
69912;SDS011;57198;52.082;5.108;2023-04-24T05:46:58;1.80;;;1.70;;
69912;SDS011;57198;52.082;5.108;2023-04-24T05:49:26;2.00;;;1.90;;
69912;SDS011;57198;52.082;5.108;2023-04-24T05:51:54;2.13;;;2.03;;
69912;SDS011;57198;52.082;5.108;2023-04-24T05:54:21;2.45;;;2.25;;
69912;SDS011;57198;52.082;5.108;2023-04-24T05:56:49;2.50;;;2.30;;
69912;SDS011;57198;52.082;5.108;2023-04-24T05:59:27;2.65;;;2.45;;
69912;SDS011;57198;52.082;5.108;2023-04-24T06:01:56;2.70;;;2.60;;
69912;SDS011;57198;52.082;5.108;2023-04-24T06:04:23;2.70;;;2.40;;
69912;SDS011;57198;52.082;5.108;2023-04-24T06:06:51;2.78;;;2.58;;
69912;SDS011;57198;52.082;5.108;2023-04-24T06:09:22;1.80;;;1.70;;
69912;SDS011;57198;52.082;5.108;2023-04-24T06:11:49;3.75;;;3.50;;
69912;SDS011;57198;52.082;5.108;2023-04-24T06:14:23;4.10;;;3.70;;
69912;SDS011;57198;52.082;5.108;2023-04-24T06:17:17;6.28;;;5.22;;
69912;SDS011;57198;52.082;5.108;2023-04-24T06:19:45;9.55;;;6.28;;
69912;SDS011;57198;52.082;5.108;2023-04-24T06:22:13;9.00;;;6.50;;
69912;SDS011;57198;52.082;5.108;2023-04-24T06:24:41;9.20;;;6.60;;
69912;SDS011;57198;52.082;5.108;2023-04-24T06:27:09;11.65;;;8.10;;
69912;SDS011;57198;52.082;5.108;2023-04-24T06:29:39;10.88;;;7.53;;
69912;SDS011;57198;52.082;5.108;2023-04-24T06:32:07;10.85;;;7.75;;
69912;SDS011;57198;52.082;5.108;2023-04-24T06:34:34;14.10;;;9.45;;
69912;SDS011;57198;52.082;5.108;2023-04-24T06:37:03;13.23;;;8.25;;
69912;SDS011;57198;52.082;5.108;2023-04-24T06:39:30;11.80;;;8.15;;
69912;SDS011;57198;52.082;5.108;2023-04-24T06:41:58;13.50;;;7.95;;
69912;SDS011;57198;52.082;5.108;2023-04-24T06:44:25;13.98;;;8.65;;
69912;SDS011;57198;52.082;5.108;2023-04-24T06:46:52;11.30;;;8.40;;
69912;SDS011;57198;52.082;5.108;2023-04-24T06:49:20;13.82;;;8.35;;
69912;SDS011;57198;52.082;5.108;2023-04-24T06:51:47;12.18;;;8.45;;
69912;SDS011;57198;52.082;5.108;2023-04-24T06:54:14;16.58;;;8.68;;
69912;SDS011;57198;52.082;5.108;2023-04-24T06:56:42;14.88;;;8.07;;
69912;SDS011;57198;52.082;5.108;2023-04-24T06:59:11;10.13;;;6.50;;
69912;SDS011;57198;52.082;5.108;2023-04-24T07:01:39;13.88;;;8.32;;
69912;SDS011;57198;52.082;5.108;2023-04-24T07:04:06;11.10;;;7.68;;
69912;SDS011;57198;52.082;5.108;2023-04-24T07:06:34;10.95;;;7.28;;
69912;SDS011;57198;52.082;5.108;2023-04-24T07:09:02;10.68;;;7.00;;
69912;SDS011;57198;52.082;5.108;2023-04-24T07:11:29;15.07;;;7.25;;
69912;SDS011;57198;52.082;5.108;2023-04-24T07:13:57;12.48;;;7.32;;
69912;SDS011;57198;52.082;5.108;2023-04-24T07:16:25;15.63;;;6.93;;
69912;SDS011;57198;52.082;5.108;2023-04-24T07:18:52;9.70;;;6.28;;
69912;SDS011;57198;52.082;5.108;2023-04-24T07:21:19;12.98;;;7.13;;
69912;SDS011;57198;52.082;5.108;2023-04-24T07:23:47;17.52;;;7.43;;
69912;SDS011;57198;52.082;5.108;2023-04-24T07:26:14;14.57;;;6.63;;
69912;SDS011;57198;52.082;5.108;2023-04-24T07:28:42;20.52;;;7.30;;
69912;SDS011;57198;52.082;5.108;2023-04-24T07:31:10;14.60;;;6.65;;
69912;SDS011;57198;52.082;5.108;2023-04-24T07:33:38;11.45;;;5.25;;
69912;SDS011;57198;52.082;5.108;2023-04-24T07:36:06;16.15;;;6.38;;
69912;SDS011;57198;52.082;5.108;2023-04-24T07:38:33;15.63;;;5.82;;
69912;SDS011;57198;52.082;5.108;2023-04-24T07:41:00;11.73;;;4.97;;
69912;SDS011;57198;52.082;5.108;2023-04-24T07:43:28;17.55;;;5.15;;
69912;SDS011;57198;52.082;5.108;2023-04-24T07:45:55;16.90;;;4.90;;
69912;SDS011;57198;52.082;5.108;2023-04-24T07:48:23;16.23;;;5.28;;
69912;SDS011;57198;52.082;5.108;2023-04-24T07:50:52;19.52;;;5.72;;
69912;SDS011;57198;52.082;5.108;2023-04-24T07:53:20;14.17;;;4.77;;
69912;SDS011;57198;52.082;5.108;2023-04-24T07:55:47;16.58;;;4.05;;
69912;SDS011;57198;52.082;5.108;2023-04-24T07:58:15;13.48;;;3.83;;
69912;SDS011;57198;52.082;5.108;2023-04-24T08:00:42;11.50;;;4.03;;
69912;SDS011;57198;52.082;5.108;2023-04-24T08:03:10;12.82;;;4.30;;
69912;SDS011;57198;52.082;5.108;2023-04-24T08:05:39;12.13;;;4.80;;
69912;SDS011;57198;52.082;5.108;2023-04-24T08:08:06;17.25;;;4.07;;
69912;SDS011;57198;52.082;5.108;2023-04-24T08:10:34;16.80;;;4.40;;
69912;SDS011;57198;52.082;5.108;2023-04-24T08:13:01;15.65;;;4.03;;
69912;SDS011;57198;52.082;5.108;2023-04-24T08:15:29;9.27;;;3.60;;
69912;SDS011;57198;52.082;5.108;2023-04-24T08:17:56;15.48;;;3.92;;
69912;SDS011;57198;52.082;5.108;2023-04-24T08:20:24;12.15;;;2.88;;
69912;SDS011;57198;52.082;5.108;2023-04-24T08:22:52;10.13;;;3.15;;
69912;SDS011;57198;52.082;5.108;2023-04-24T08:25:20;9.90;;;2.70;;
69912;SDS011;57198;52.082;5.108;2023-04-24T08:27:49;10.02;;;3.30;;
69912;SDS011;57198;52.082;5.108;2023-04-24T08:30:17;10.75;;;2.95;;
69912;SDS011;57198;52.082;5.108;2023-04-24T08:32:44;7.68;;;2.97;;
69912;SDS011;57198;52.082;5.108;2023-04-24T08:35:12;10.73;;;3.35;;
69912;SDS011;57198;52.082;5.108;2023-04-24T08:37:39;14.10;;;3.08;;
69912;SDS011;57198;52.082;5.108;2023-04-24T08:40:11;13.60;;;3.08;;
69912;SDS011;57198;52.082;5.108;2023-04-24T08:42:43;6.07;;;2.10;;
69912;SDS011;57198;52.082;5.108;2023-04-24T08:45:11;8.68;;;2.60;;
69912;SDS011;57198;52.082;5.108;2023-04-24T08:47:39;10.30;;;3.15;;
69912;SDS011;57198;52.082;5.108;2023-04-24T08:50:08;10.18;;;2.92;;
69912;SDS011;57198;52.082;5.108;2023-04-24T08:52:36;9.50;;;2.95;;
69912;SDS011;57198;52.082;5.108;2023-04-24T08:55:03;8.45;;;3.15;;
69912;SDS011;57198;52.082;5.108;2023-04-24T08:57:31;6.53;;;2.58;;
69912;SDS011;57198;52.082;5.108;2023-04-24T09:00:00;12.05;;;2.67;;
69912;SDS011;57198;52.082;5.108;2023-04-24T09:02:27;7.45;;;3.30;;
69912;SDS011;57198;52.082;5.108;2023-04-24T09:04:56;10.45;;;3.40;;
69912;SDS011;57198;52.082;5.108;2023-04-24T09:07:24;11.97;;;3.73;;
69912;SDS011;57198;52.082;5.108;2023-04-24T09:09:52;11.52;;;3.25;;
69912;SDS011;57198;52.082;5.108;2023-04-24T09:12:20;10.02;;;3.92;;
69912;SDS011;57198;52.082;5.108;2023-04-24T09:14:47;7.43;;;3.10;;
69912;SDS011;57198;52.082;5.108;2023-04-24T09:17:15;6.78;;;3.10;;
69912;SDS011;57198;52.082;5.108;2023-04-24T09:19:42;12.30;;;3.60;;
69912;SDS011;57198;52.082;5.108;2023-04-24T09:22:10;6.35;;;2.60;;
69912;SDS011;57198;52.082;5.108;2023-04-24T09:24:37;9.45;;;2.42;;
69912;SDS011;57198;52.082;5.108;2023-04-24T09:27:05;7.38;;;2.75;;
69912;SDS011;57198;52.082;5.108;2023-04-24T09:29:36;6.85;;;2.67;;
69912;SDS011;57198;52.082;5.108;2023-04-24T09:32:20;5.47;;;2.10;;
69912;SDS011;57198;52.082;5.108;2023-04-24T09:34:48;6.05;;;2.95;;
69912;SDS011;57198;52.082;5.108;2023-04-24T09:37:29;7.90;;;2.58;;
69912;SDS011;57198;52.082;5.108;2023-04-24T09:40:16;6.78;;;1.92;;
69912;SDS011;57198;52.082;5.108;2023-04-24T09:42:54;7.32;;;2.20;;
69912;SDS011;57198;52.082;5.108;2023-04-24T09:45:27;8.00;;;2.97;;
69912;SDS011;57198;52.082;5.108;2023-04-24T09:47:54;12.73;;;2.95;;
69912;SDS011;57198;52.082;5.108;2023-04-24T09:50:22;5.68;;;2.22;;
69912;SDS011;57198;52.082;5.108;2023-04-24T09:52:57;9.35;;;2.88;;
69912;SDS011;57198;52.082;5.108;2023-04-24T09:55:25;4.07;;;2.40;;
69912;SDS011;57198;52.082;5.108;2023-04-24T09:57:57;5.07;;;2.40;;
69912;SDS011;57198;52.082;5.108;2023-04-24T10:00:27;3.53;;;1.63;;
69912;SDS011;57198;52.082;5.108;2023-04-24T10:02:56;2.17;;;1.90;;
69912;SDS011;57198;52.082;5.108;2023-04-24T10:05:24;6.38;;;2.05;;
69912;SDS011;57198;52.082;5.108;2023-04-24T10:07:52;5.35;;;1.85;;
69912;SDS011;57198;52.082;5.108;2023-04-24T10:10:23;1.87;;;1.43;;
69912;SDS011;57198;52.082;5.108;2023-04-24T10:12:51;4.20;;;2.40;;
69912;SDS011;57198;52.082;5.108;2023-04-24T10:15:19;3.70;;;1.88;;
69912;SDS011;57198;52.082;5.108;2023-04-24T10:17:48;6.93;;;2.17;;
69912;SDS011;57198;52.082;5.108;2023-04-24T10:20:20;3.83;;;1.75;;
69912;SDS011;57198;52.082;5.108;2023-04-24T10:22:48;3.70;;;2.30;;
69912;SDS011;57198;52.082;5.108;2023-04-24T10:25:19;3.40;;;2.67;;
69912;SDS011;57198;52.082;5.108;2023-04-24T10:27:48;3.45;;;1.65;;
69912;SDS011;57198;52.082;5.108;2023-04-24T10:30:15;5.78;;;2.30;;
69912;SDS011;57198;52.082;5.108;2023-04-24T10:32:43;3.83;;;1.90;;
69912;SDS011;57198;52.082;5.108;2023-04-24T10:35:14;4.33;;;1.83;;
69912;SDS011;57198;52.082;5.108;2023-04-24T10:37:48;1.70;;;1.60;;
69912;SDS011;57198;52.082;5.108;2023-04-24T10:40:18;4.38;;;1.80;;
69912;SDS011;57198;52.082;5.108;2023-04-24T10:42:49;3.63;;;2.10;;
69912;SDS011;57198;52.082;5.108;2023-04-24T10:45:23;7.45;;;2.10;;
69912;SDS011;57198;52.082;5.108;2023-04-24T10:50:51;3.85;;;2.40;;
69912;SDS011;57198;52.082;5.108;2023-04-24T10:53:19;4.78;;;1.95;;
69912;SDS011;57198;52.082;5.108;2023-04-24T10:55:48;2.60;;;1.50;;
69912;SDS011;57198;52.082;5.108;2023-04-24T10:58:23;2.72;;;2.13;;
69912;SDS011;57198;52.082;5.108;2023-04-24T11:00:57;8.40;;;2.20;;
69912;SDS011;57198;52.082;5.108;2023-04-24T11:03:29;3.38;;;1.65;;
69912;SDS011;57198;52.082;5.108;2023-04-24T11:08:28;5.00;;;1.52;;
69912;SDS011;57198;52.082;5.108;2023-04-24T11:11:03;4.05;;;1.70;;
69912;SDS011;57198;52.082;5.108;2023-04-24T11:18:59;6.40;;;1.83;;
69912;SDS011;57198;52.082;5.108;2023-04-24T11:22:13;5.68;;;1.85;;
69912;SDS011;57198;52.082;5.108;2023-04-24T11:25:01;2.00;;;1.50;;
69912;SDS011;57198;52.082;5.108;2023-04-24T11:27:16;0.90;;;0.87;;
69912;SDS011;57198;52.082;5.108;2023-04-24T11:29:47;3.15;;;1.48;;
69912;SDS011;57198;52.082;5.108;2023-04-24T11:32:25;1.65;;;1.50;;
69912;SDS011;57198;52.082;5.108;2023-04-24T11:34:53;1.77;;;1.40;;
69912;SDS011;57198;52.082;5.108;2023-04-24T11:37:22;1.98;;;1.88;;
69912;SDS011;57198;52.082;5.108;2023-04-24T11:39:51;2.30;;;1.73;;
69912;SDS011;57198;52.082;5.108;2023-04-24T11:42:19;4.70;;;1.70;;
69912;SDS011;57198;52.082;5.108;2023-04-24T11:44:47;5.47;;;1.65;;
69912;SDS011;57198;52.082;5.108;2023-04-24T11:47:14;3.60;;;1.75;;
69912;SDS011;57198;52.082;5.108;2023-04-24T11:49:42;2.95;;;1.33;;
69912;SDS011;57198;52.082;5.108;2023-04-24T11:52:09;2.80;;;1.43;;
69912;SDS011;57198;52.082;5.108;2023-04-24T11:54:37;4.50;;;1.33;;
69912;SDS011;57198;52.082;5.108;2023-04-24T11:57:05;4.85;;;2.00;;
69912;SDS011;57198;52.082;5.108;2023-04-24T11:59:36;5.80;;;1.98;;
69912;SDS011;57198;52.082;5.108;2023-04-24T12:02:04;3.17;;;2.13;;
69912;SDS011;57198;52.082;5.108;2023-04-24T12:04:39;2.53;;;1.90;;
69912;SDS011;57198;52.082;5.108;2023-04-24T12:07:07;7.05;;;2.42;;
69912;SDS011;57198;52.082;5.108;2023-04-24T12:09:42;3.42;;;1.80;;
69912;SDS011;57198;52.082;5.108;2023-04-24T12:12:10;3.70;;;1.60;;
69912;SDS011;57198;52.082;5.108;2023-04-24T12:14:48;4.25;;;2.30;;
69912;SDS011;57198;52.082;5.108;2023-04-24T12:17:16;2.90;;;1.50;;
69912;SDS011;57198;52.082;5.108;2023-04-24T12:19:47;4.65;;;2.40;;
69912;SDS011;57198;52.082;5.108;2023-04-24T12:22:15;5.93;;;2.47;;
69912;SDS011;57198;52.082;5.108;2023-04-24T12:24:55;5.38;;;1.98;;
69912;SDS011;57198;52.082;5.108;2023-04-24T12:27:28;7.00;;;2.03;;
69912;SDS011;57198;52.082;5.108;2023-04-24T12:29:55;6.80;;;2.10;;
69912;SDS011;57198;52.082;5.108;2023-04-24T12:32:23;3.40;;;1.92;;
69912;SDS011;57198;52.082;5.108;2023-04-24T12:34:54;5.10;;;2.30;;
69912;SDS011;57198;52.082;5.108;2023-04-24T12:37:22;7.35;;;2.60;;
69912;SDS011;57198;52.082;5.108;2023-04-24T12:40:01;7.63;;;1.95;;
69912;SDS011;57198;52.082;5.108;2023-04-24T12:42:29;7.37;;;2.50;;
69912;SDS011;57198;52.082;5.108;2023-04-24T12:44:58;8.65;;;2.15;;
69912;SDS011;57198;52.082;5.108;2023-04-24T12:47:28;5.50;;;2.00;;
69912;SDS011;57198;52.082;5.108;2023-04-24T12:49:56;6.15;;;2.20;;
69912;SDS011;57198;52.082;5.108;2023-04-24T12:52:24;6.90;;;2.10;;
69912;SDS011;57198;52.082;5.108;2023-04-24T12:54:52;5.30;;;2.40;;
69912;SDS011;57198;52.082;5.108;2023-04-24T12:57:21;5.75;;;2.47;;
69912;SDS011;57198;52.082;5.108;2023-04-24T12:59:49;7.65;;;2.50;;
69912;SDS011;57198;52.082;5.108;2023-04-24T13:02:16;5.53;;;2.50;;
69912;SDS011;57198;52.082;5.108;2023-04-24T13:04:45;8.82;;;2.50;;
69912;SDS011;57198;52.082;5.108;2023-04-24T13:07:13;9.07;;;3.33;;
69912;SDS011;57198;52.082;5.108;2023-04-24T13:09:41;11.98;;;3.92;;
69912;SDS011;57198;52.082;5.108;2023-04-24T13:12:09;7.40;;;3.67;;
69912;SDS011;57198;52.082;5.108;2023-04-24T13:14:37;7.85;;;2.60;;
69912;SDS011;57198;52.082;5.108;2023-04-24T13:17:04;7.20;;;2.30;;
69912;SDS011;57198;52.082;5.108;2023-04-24T13:19:37;8.13;;;2.30;;
69912;SDS011;57198;52.082;5.108;2023-04-24T13:22:05;11.05;;;2.67;;
69912;SDS011;57198;52.082;5.108;2023-04-24T13:24:32;9.05;;;2.72;;
69912;SDS011;57198;52.082;5.108;2023-04-24T13:27:00;6.32;;;2.83;;
69912;SDS011;57198;52.082;5.108;2023-04-24T13:29:28;6.40;;;3.60;;
69912;SDS011;57198;52.082;5.108;2023-04-24T13:31:56;5.17;;;2.63;;
69912;SDS011;57198;52.082;5.108;2023-04-24T13:34:24;8.48;;;3.05;;
69912;SDS011;57198;52.082;5.108;2023-04-24T13:36:52;10.45;;;3.10;;
69912;SDS011;57198;52.082;5.108;2023-04-24T13:39:20;6.22;;;2.55;;
69912;SDS011;57198;52.082;5.108;2023-04-24T13:41:48;6.18;;;2.45;;
69912;SDS011;57198;52.082;5.108;2023-04-24T13:44:16;7.13;;;2.90;;
69912;SDS011;57198;52.082;5.108;2023-04-24T13:46:44;7.32;;;3.10;;
69912;SDS011;57198;52.082;5.108;2023-04-24T13:49:12;5.43;;;2.30;;
69912;SDS011;57198;52.082;5.108;2023-04-24T13:51:40;10.13;;;2.90;;
69912;SDS011;57198;52.082;5.108;2023-04-24T13:54:08;5.43;;;2.60;;
69912;SDS011;57198;52.082;5.108;2023-04-24T13:56:35;7.97;;;2.63;;
69912;SDS011;57198;52.082;5.108;2023-04-24T13:59:03;11.52;;;2.83;;
69912;SDS011;57198;52.082;5.108;2023-04-24T14:01:30;6.68;;;2.70;;
69912;SDS011;57198;52.082;5.108;2023-04-24T14:03:58;9.65;;;2.60;;
69912;SDS011;57198;52.082;5.108;2023-04-24T14:06:26;7.35;;;2.78;;
69912;SDS011;57198;52.082;5.108;2023-04-24T14:08:53;9.17;;;3.17;;
69912;SDS011;57198;52.082;5.108;2023-04-24T14:11:21;7.80;;;2.67;;
69912;SDS011;57198;52.082;5.108;2023-04-24T14:13:48;9.63;;;3.70;;
69912;SDS011;57198;52.082;5.108;2023-04-24T14:16:16;10.65;;;3.78;;
69912;SDS011;57198;52.082;5.108;2023-04-24T14:18:43;10.23;;;3.40;;
69912;SDS011;57198;52.082;5.108;2023-04-24T14:21:11;8.67;;;3.60;;
69912;SDS011;57198;52.082;5.108;2023-04-24T14:23:38;7.57;;;3.25;;
69912;SDS011;57198;52.082;5.108;2023-04-24T14:26:06;9.25;;;3.10;;
69912;SDS011;57198;52.082;5.108;2023-04-24T14:28:33;6.45;;;2.63;;
69912;SDS011;57198;52.082;5.108;2023-04-24T14:31:00;7.95;;;2.97;;
69912;SDS011;57198;52.082;5.108;2023-04-24T14:33:28;6.80;;;3.07;;
69912;SDS011;57198;52.082;5.108;2023-04-24T14:35:55;4.72;;;2.63;;
69912;SDS011;57198;52.082;5.108;2023-04-24T14:38:22;8.18;;;3.67;;
69912;SDS011;57198;52.082;5.108;2023-04-24T14:40:50;10.57;;;3.75;;
69912;SDS011;57198;52.082;5.108;2023-04-24T14:43:32;11.40;;;3.80;;
69912;SDS011;57198;52.082;5.108;2023-04-24T14:46:02;5.63;;;3.23;;
69912;SDS011;57198;52.082;5.108;2023-04-24T14:48:29;8.30;;;4.20;;
69912;SDS011;57198;52.082;5.108;2023-04-24T14:50:57;11.32;;;3.70;;
69912;SDS011;57198;52.082;5.108;2023-04-24T14:53:24;6.15;;;3.15;;
69912;SDS011;57198;52.082;5.108;2023-04-24T14:55:52;7.68;;;2.85;;
69912;SDS011;57198;52.082;5.108;2023-04-24T14:58:19;7.10;;;3.43;;
69912;SDS011;57198;52.082;5.108;2023-04-24T15:00:47;8.98;;;3.63;;
69912;SDS011;57198;52.082;5.108;2023-04-24T15:03:18;6.10;;;2.80;;
69912;SDS011;57198;52.082;5.108;2023-04-24T15:05:47;9.50;;;3.30;;
69912;SDS011;57198;52.082;5.108;2023-04-24T15:08:14;7.57;;;3.22;;